Time;durP1;ratioP1;P1;durP2;ratioP2;P2;SDS_P1;SDS_P2;PMS_P1;PMS_P2;Temp;Humidity;BMP_temperature;BMP_pressure;BME280_temperature;BME280_humidity;BME280_pressure;Samples;Min_cycle;Max_cycle;Signal;HPM_P1;HPM_P2
2021/04/23 00:00:57;;;;;;;10.02;3.28;;;;;;;9.36;46.46;100584.13;5078671;28;20115;-69
2021/04/23 00:03:39;;;;;;;11.07;3.15;;;;;;;9.35;47.22;100603.72;5096771;28;20036;-69
2021/04/23 00:06:10;;;;;;;8.77;3.67;;;;;;;9.25;47.37;100583.81;5096766;28;20028;-69
2021/04/23 00:08:36;;;;;;;10.07;3.83;;;;;;;9.28;48.13;100603.19;5106181;28;20024;-71
2021/04/23 00:11:05;;;;;;;9.20;3.67;;;;;;;9.05;47.77;100569.69;5080688;28;20039;-68
2021/04/23 00:13:31;;;;;;;9.60;3.22;;;;;;;9.24;48.09;100606.03;5097435;28;20108;-72
2021/04/23 00:15:58;;;;;;;9.57;4.03;;;;;;;9.23;47.95;100609.66;5078838;28;20054;-70
2021/04/23 00:18:24;;;;;;;12.82;3.65;;;;;;;9.10;47.46;100591.63;5096951;28;20115;-69
2021/04/23 00:20:50;;;;;;;10.75;4.03;;;;;;;9.20;47.72;100618.66;5096294;28;20028;-68
2021/04/23 00:23:17;;;;;;;10.35;3.50;;;;;;;9.02;47.81;100593.78;5078145;28;20032;-69
2021/04/23 00:25:43;;;;;;;8.70;3.80;;;;;;;9.07;47.67;100618.41;5077727;28;20372;-69
2021/04/23 00:28:11;;;;;;;8.85;3.10;;;;;;;8.80;48.06;100593.09;5078174;28;20032;-69
2021/04/23 00:30:44;;;;;;;8.20;3.70;;;;;;;8.90;47.97;100623.66;5061245;28;20032;-69
2021/04/23 00:33:11;;;;;;;10.37;3.97;;;;;;;8.79;48.63;100617.97;5096306;28;20028;-69
2021/04/23 00:35:41;;;;;;;8.68;2.88;;;;;;;8.74;48.92;100625.28;5077779;28;20031;-70
2021/04/23 00:38:10;;;;;;;9.82;3.63;;;;;;;8.64;49.81;100621.34;5096191;28;20031;-70
2021/04/23 00:40:48;;;;;;;10.20;3.70;;;;;;;8.55;50.37;100623.47;5095714;28;20047;-70
2021/04/23 00:43:19;;;;;;;10.43;3.75;;;;;;;8.47;50.20;100616.78;5095970;28;20116;-70
2021/04/23 00:45:45;;;;;;;11.52;4.30;;;;;;;8.48;51.07;100622.03;5077526;28;20050;-70
2021/04/23 00:48:12;;;;;;;10.43;4.03;;;;;;;8.42;51.40;100614.34;5095550;28;20546;-69
2021/04/23 00:50:51;;;;;;;9.45;4.18;;;;;;;8.39;50.95;100621.59;5094931;28;20122;-69
2021/04/23 00:53:21;;;;;;;6.72;3.90;;;;;;;8.30;51.03;100622.84;5095700;28;20036;-71
2021/04/23 00:55:46;;;;;;;10.50;3.80;;;;;;;8.06;51.93;100602.69;5077240;28;20044;-71
2021/04/23 00:58:17;;;;;;;11.90;4.45;;;;;;;8.00;52.14;100612.63;5095803;28;20059;-70
2021/04/23 01:00:47;;;;;;;12.13;3.72;;;;;;;8.10;52.23;100634.34;5095126;28;20028;-71
2021/04/23 01:03:15;;;;;;;9.13;3.78;;;;;;;8.01;52.95;100640.94;5095904;28;20066;-70
2021/04/23 01:05:41;;;;;;;10.13;4.30;;;;;;;7.97;52.73;100641.13;5095047;28;20020;-71
2021/04/23 01:08:07;;;;;;;11.68;4.18;;;;;;;7.87;52.98;100645.97;5095414;28;20042;-70
2021/04/23 01:10:33;;;;;;;12.82;4.38;;;;;;;7.81;52.85;100646.22;5077335;28;20028;-71
2021/04/23 01:12:59;;;;;;;10.07;4.28;;;;;;;7.71;53.31;100644.88;5077058;28;20138;-71
2021/04/23 01:15:25;;;;;;;9.38;4.35;;;;;;;7.58;52.50;100628.63;5077056;28;20047;-71
2021/04/23 01:17:51;;;;;;;9.75;4.43;;;;;;;7.64;53.09;100649.63;5074800;28;20493;-70
2021/04/23 01:20:20;;;;;;;9.82;3.80;;;;;;;7.37;53.13;100625.06;5074865;28;20046;-70
2021/04/23 01:22:45;;;;;;;8.25;3.00;;;;;;;7.44;52.75;100668.16;5057036;28;20120;-69
2021/04/23 01:25:12;;;;;;;12.32;4.05;;;;;;;7.34;53.23;100667.66;5073671;28;20128;-70
2021/04/23 01:27:38;;;;;;;12.48;3.85;;;;;;;7.37;53.29;100667.53;5074571;28;20059;-70
2021/04/23 01:30:09;;;;;;;11.95;3.90;;;;;;;7.09;53.19;100643.03;5074758;28;20032;-69
2021/04/23 01:32:35;;;;;;;10.43;3.63;;;;;;;7.18;53.20;100658.56;5074924;28;20055;-70
2021/04/23 01:35:02;;;;;;;10.30;4.38;;;;;;;7.15;53.16;100661.38;5074625;28;20032;-69
2021/04/23 01:37:28;;;;;;;10.48;4.55;;;;;;;7.02;53.30;100655.66;5073346;28;20040;-70
2021/04/23 01:39:56;;;;;;;11.63;4.53;;;;;;;6.46;53.51;100571.22;5074361;28;20445;-70
2021/04/23 01:42:22;;;;;;;11.90;4.43;;;;;;;6.84;53.82;100656.38;5073369;28;20078;-70
2021/04/23 01:44:47;;;;;;;14.23;4.60;;;;;;;6.72;53.53;100635.63;5074160;28;20274;-70
2021/04/23 01:47:13;;;;;;;11.50;3.55;;;;;;;6.77;54.00;100655.75;5073226;28;20040;-70
2021/04/23 01:49:38;;;;;;;9.93;3.75;;;;;;;6.72;54.13;100655.03;5072811;28;20131;-73
2021/04/23 01:52:11;;;;;;;14.80;4.80;;;;;;;6.52;54.84;100623.13;5074484;28;20056;-72
2021/04/23 01:54:37;;;;;;;8.63;2.78;;;;;;;6.62;54.28;100644.84;5073110;28;20055;-78
2021/04/23 01:57:04;;;;;;;9.60;3.03;;;;;;;6.61;54.50;100657.25;5073523;28;20090;-70
2021/04/23 01:59:31;;;;;;;13.27;4.20;;;;;;;6.41;54.83;100631.47;5074263;28;20036;-69
2021/04/23 02:01:58;;;;;;;10.80;3.92;;;;;;;6.36;55.07;100643.16;5073228;28;20050;-70
2021/04/23 02:04:24;;;;;;;9.57;3.90;;;;;;;6.38;55.08;100651.94;5072839;28;20036;-70
2021/04/23 02:06:51;;;;;;;10.27;4.25;;;;;;;6.44;54.91;100672.91;5073448;28;20095;-70
2021/04/23 02:09:17;;;;;;;14.20;4.50;;;;;;;6.39;55.14;100669.56;5074039;28;20032;-71
2021/04/23 02:11:46;;;;;;;9.10;4.00;;;;;;;6.36;55.58;100675.81;5073725;28;20028;-72
2021/04/23 02:14:12;;;;;;;11.93;4.45;;;;;;;6.30;55.75;100663.69;5074107;28;20037;-70
2021/04/23 02:16:38;;;;;;;10.27;4.60;;;;;;;6.29;56.43;100663.75;5083472;28;20070;-70
2021/04/23 02:19:12;;;;;;;12.40;4.28;;;;;;;6.00;56.46;100633.00;5059476;28;20036;-70
2021/04/23 02:21:38;;;;;;;11.18;3.53;;;;;;;6.13;56.70;100666.06;5076031;28;20495;-72
2021/04/23 02:24:05;;;;;;;14.27;4.93;;;;;;;6.12;56.58;100674.91;5093599;28;20086;-70
2021/04/23 02:26:31;;;;;;;6.57;3.70;;;;;;;6.03;57.05;100662.00;5093624;28;20472;-70
2021/04/23 02:28:57;;;;;;;10.85;4.75;;;;;;;6.06;57.02;100668.97;5093568;28;20038;-71
2021/04/23 02:31:25;;;;;;;7.90;3.53;;;;;;;5.90;57.18;100644.78;5075718;28;20040;-70
2021/04/23 02:33:53;;;;;;;14.93;4.93;;;;;;;5.71;56.45;100603.06;5093477;28;20032;-70
2021/04/23 02:36:20;;;;;;;14.07;4.88;;;;;;;5.92;56.86;100654.44;5093472;28;20036;-70
2021/04/23 02:38:47;;;;;;;13.00;4.50;;;;;;;5.86;57.41;100659.03;5093234;28;20032;-71
2021/04/23 02:41:14;;;;;;;12.85;4.20;;;;;;;5.96;57.75;100677.22;5075829;28;20036;-70
2021/04/23 02:43:44;;;;;;;13.70;5.05;;;;;;;5.91;57.87;100681.81;5075302;28;20107;-72
2021/04/23 02:46:11;;;;;;;9.90;4.32;;;;;;;5.89;58.35;100682.78;5093780;28;20072;-70
2021/04/23 02:48:41;;;;;;;13.40;4.75;;;;;;;5.96;57.96;100687.81;5093540;28;20028;-69
2021/04/23 02:51:13;;;;;;;12.07;4.20;;;;;;;5.74;58.45;100668.25;5093279;28;20107;-69
2021/04/23 02:53:39;;;;;;;11.52;4.45;;;;;;;5.91;58.17;100694.22;5075342;28;20028;-70
2021/04/23 02:56:07;;;;;;;11.70;4.20;;;;;;;5.96;58.05;100697.53;5093242;28;20043;-70
2021/04/23 02:58:33;;;;;;;11.13;4.47;;;;;;;5.67;58.24;100659.66;5093896;28;20059;-70
2021/04/23 03:01:00;;;;;;;11.43;4.75;;;;;;;5.61;59.04;100665.16;5074914;28;20068;-72
2021/04/23 03:03:27;;;;;;;12.70;4.45;;;;;;;5.64;59.63;100686.22;5093824;28;20499;-71
2021/04/23 03:05:53;;;;;;;11.25;4.25;;;;;;;5.61;59.61;100685.47;5074767;28;20078;-70
2021/04/23 03:08:20;;;;;;;15.07;5.03;;;;;;;5.57;60.46;100682.03;5075380;28;20032;-71
2021/04/23 03:10:58;;;;;;;10.50;4.75;;;;;;;5.44;60.47;100671.00;5093031;28;20036;-70
2021/04/23 03:13:26;;;;;;;14.02;5.00;;;;;;;5.54;60.36;100695.38;5092974;28;20062;-69
2021/04/23 03:15:53;;;;;;;17.38;4.60;;;;;;;5.50;60.50;100687.56;5092523;28;20508;-69
2021/04/23 03:18:22;;;;;;;14.20;5.00;;;;;;;5.22;60.16;100624.16;5101971;28;20115;-69
2021/04/23 03:20:48;;;;;;;11.30;4.68;;;;;;;5.50;61.31;100685.81;5098725;28;20028;-69
2021/04/23 03:23:14;;;;;;;18.23;5.18;;;;;;;5.26;61.47;100660.16;5075789;28;20032;-69
2021/04/23 03:25:40;;;;;;;9.45;4.88;;;;;;;5.22;61.69;100659.38;5093216;28;20480;-70
2021/04/23 03:28:06;;;;;;;11.48;5.55;;;;;;;4.92;61.90;100616.25;5093062;28;20031;-69
2021/04/23 03:30:36;;;;;;;14.57;5.75;;;;;;;5.36;61.70;100690.69;5093371;28;20032;-70
2021/04/23 03:33:03;;;;;;;16.08;5.43;;;;;;;5.34;61.86;100692.53;5074804;28;20056;-70
2021/04/23 03:35:29;;;;;;;12.65;5.15;;;;;;;5.27;61.67;100677.75;5092729;28;20032;-70
2021/04/23 03:37:56;;;;;;;14.77;5.32;;;;;;;5.34;61.77;100692.53;5092778;28;20038;-70
2021/04/23 03:40:24;;;;;;;13.07;5.05;;;;;;;5.40;61.73;100713.47;5092699;28;20036;-72
2021/04/23 03:42:49;;;;;;;11.13;4.93;;;;;;;5.36;61.67;100707.41;5092691;28;20481;-72
2021/04/23 03:45:17;;;;;;;12.23;5.15;;;;;;;5.47;61.74;100704.44;5074743;28;20044;-71
2021/04/23 03:47:44;;;;;;;13.30;5.43;;;;;;;5.06;62.16;100658.13;5092934;28;20032;-71
2021/04/23 03:50:11;;;;;;;13.70;5.18;;;;;;;5.37;62.15;100709.16;5093216;28;20178;-71
2021/04/23 03:52:37;;;;;;;15.25;4.85;;;;;;;5.35;62.48;100712.75;5093019;28;20036;-70
2021/04/23 03:55:09;;;;;;;15.00;5.55;;;;;;;5.46;61.99;100729.16;5092604;28;20031;-70
2021/04/23 03:57:35;;;;;;;13.48;5.57;;;;;;;5.40;62.01;100724.94;5074712;28;20039;-69
2021/04/23 04:00:04;;;;;;;11.93;5.00;;;;;;;5.45;62.27;100738.00;5074191;28;20028;-70
2021/04/23 04:02:29;;;;;;;14.73;5.75;;;;;;;5.47;62.17;100736.19;5074669;28;20032;-71
2021/04/23 04:04:55;;;;;;;14.80;5.57;;;;;;;5.53;61.90;100737.78;5092547;28;20069;-72
2021/04/23 04:07:20;;;;;;;13.68;5.38;;;;;;;5.47;62.24;100744.13;5074403;28;20028;-70
2021/04/23 04:09:46;;;;;;;11.27;5.13;;;;;;;5.63;61.48;100742.72;5074152;28;20035;-80
2021/04/23 04:12:11;;;;;;;17.48;6.18;;;;;;;5.38;61.64;100688.84;5092447;28;20043;-71
2021/04/23 04:14:37;;;;;;;13.43;5.00;;;;;;;5.73;60.77;100732.72;5093011;28;20070;-70
2021/04/23 04:17:02;;;;;;;11.00;5.50;;;;;;;5.95;60.69;100754.06;5074071;28;20048;-72
2021/04/23 04:19:28;;;;;;;14.70;5.53;;;;;;;6.24;59.44;100730.13;5074754;28;20061;-72
2021/04/23 04:21:53;;;;;;;13.23;5.38;;;;;;;6.47;58.46;100737.28;5092398;28;20480;-71
2021/04/23 04:24:19;;;;;;;13.45;5.22;;;;;;;6.77;57.35;100723.81;5057826;28;20035;-70
2021/04/23 04:26:44;;;;;;;16.00;5.68;;;;;;;7.11;56.75;100774.66;5094999;28;20116;-73
2021/04/23 04:29:11;;;;;;;13.82;5.85;;;;;;;7.04;55.98;100709.50;5096194;28;20028;-71
2021/04/23 04:31:37;;;;;;;12.02;4.82;;;;;;;7.41;55.84;100772.63;5095974;28;20117;-71
2021/04/23 04:34:02;;;;;;;14.95;5.47;;;;;;;7.34;55.61;100762.34;5095751;28;20060;-70
2021/04/23 04:36:28;;;;;;;13.93;5.45;;;;;;;7.38;55.69;100785.16;5115341;28;20049;-71
2021/04/23 04:38:53;;;;;;;16.05;6.13;;;;;;;7.58;55.26;100773.78;5097594;28;20426;-70
2021/04/23 04:41:19;;;;;;;13.35;5.75;;;;;;;7.29;55.83;100754.53;5116068;28;20426;-71
2021/04/23 04:43:45;;;;;;;14.50;5.60;;;;;;;7.25;55.97;100763.56;5097956;28;20032;-70
2021/04/23 04:46:11;;;;;;;15.32;5.47;;;;;;;7.11;56.69;100793.25;5116071;28;20046;-70
2021/04/23 04:48:37;;;;;;;16.00;5.43;;;;;;;7.09;56.65;100768.56;5097798;28;20024;-70
2021/04/23 04:51:04;;;;;;;13.65;5.38;;;;;;;7.15;56.35;100791.34;5080624;28;20066;-71
2021/04/23 04:53:30;;;;;;;14.00;5.15;;;;;;;6.75;56.65;100739.75;5116363;28;20040;-70
2021/04/23 04:55:58;;;;;;;12.55;5.40;;;;;;;7.10;56.15;100796.81;5115713;28;20088;-74
2021/04/23 04:58:28;;;;;;;12.45;5.25;;;;;;;7.21;56.53;100799.06;5097174;28;20054;-72
2021/04/23 05:00:54;;;;;;;12.70;5.32;;;;;;;7.33;55.77;100803.91;5084861;28;20051;-72
2021/04/23 05:03:21;;;;;;;12.65;5.22;;;;;;;7.22;56.50;100800.78;5097016;28;20424;-71
2021/04/23 05:05:46;;;;;;;13.48;5.40;;;;;;;7.34;55.69;100805.66;5096489;28;20027;-76
2021/04/23 05:08:12;;;;;;;13.40;5.50;;;;;;;7.43;55.21;100805.31;5102141;28;20055;-74
2021/04/23 05:10:38;;;;;;;12.20;5.80;;;;;;;7.74;55.09;100806.75;5106628;28;20044;-74
2021/04/23 05:13:04;;;;;;;15.13;5.60;;;;;;;7.54;54.12;100801.38;5103553;28;20035;-72
2021/04/23 05:15:30;;;;;;;11.95;5.07;;;;;;;7.77;53.84;100811.94;5088383;28;20507;-73
2021/04/23 05:17:56;;;;;;;10.40;5.22;;;;;;;7.93;53.13;100825.50;5088463;28;20055;-75
2021/04/23 05:20:23;;;;;;;16.13;5.70;;;;;;;7.90;53.24;100818.47;5097534;28;20031;-75
2021/04/23 05:22:49;;;;;;;11.60;5.20;;;;;;;7.90;52.60;100810.50;5115489;28;20036;-71
2021/04/23 05:25:21;;;;;;;12.63;5.18;;;;;;;7.82;52.84;100806.47;5079916;28;20035;-71
2021/04/23 05:27:47;;;;;;;10.20;5.00;;;;;;;8.20;51.80;100832.34;5112330;28;20078;-75
2021/04/23 05:30:17;;;;;;;10.18;4.95;;;;;;;8.56;50.89;100816.66;5074253;28;20039;-72
2021/04/23 05:32:44;;;;;;;11.93;5.13;;;;;;;8.84;50.38;100820.78;5098119;28;20028;-72
2021/04/23 05:35:11;;;;;;;10.52;5.55;;;;;;;8.76;49.78;100809.59;5084042;28;20123;-79
2021/04/23 05:37:37;;;;;;;15.25;5.35;;;;;;;9.13;49.67;100833.66;5103856;28;20032;-75
2021/04/23 05:40:06;;;;;;;11.10;4.57;;;;;;;9.32;48.87;100840.81;5113974;28;20059;-76
2021/04/23 05:42:31;;;;;;;16.77;5.13;;;;;;;9.25;48.21;100794.97;5089216;28;20487;-76
2021/04/23 05:44:57;;;;;;;14.88;5.55;;;;;;;10.21;46.96;100837.44;5090203;28;20062;-80
2021/04/23 05:47:24;;;;;;;16.50;5.38;;;;;;;10.65;45.23;100845.94;5096262;28;20027;-72
2021/04/23 05:49:49;;;;;;;11.68;4.65;;;;;;;10.76;45.05;100821.34;5078987;28;20080;-74
2021/04/23 05:52:15;;;;;;;13.95;5.15;;;;;;;11.42;44.49;100856.97;5113950;28;20373;-71
2021/04/23 05:54:41;;;;;;;12.00;4.80;;;;;;;11.31;43.96;100859.38;5114278;28;20040;-72
2021/04/23 05:57:07;;;;;;;13.15;4.82;;;;;;;10.64;44.98;100862.03;5113976;28;20080;-73
2021/04/23 05:59:32;;;;;;;12.40;5.28;;;;;;;10.63;45.54;100831.81;5071733;28;20036;-71
2021/04/23 06:01:59;;;;;;;10.98;4.78;;;;;;;10.80;45.18;100849.59;5073398;28;20044;-76
2021/04/23 06:04:25;;;;;;;12.32;5.57;;;;;;;11.58;44.02;100866.81;5073801;28;20039;-70
2021/04/23 06:06:50;;;;;;;11.82;5.45;;;;;;;11.46;43.85;100871.00;5073123;28;20389;-70
2021/04/23 06:09:16;;;;;;;11.02;4.80;;;;;;;11.60;43.31;100872.97;5055003;28;20024;-71
2021/04/23 06:11:42;;;;;;;15.52;4.75;;;;;;;11.23;43.93;100877.59;5055602;28;20036;-75
2021/04/23 06:14:08;;;;;;;12.73;4.63;;;;;;;10.39;45.79;100819.69;5072865;28;20037;-74
2021/04/23 06:16:35;;;;;;;12.00;5.03;;;;;;;11.95;42.93;100879.03;5055250;28;20108;-71
2021/04/23 06:19:01;;;;;;;11.88;4.80;;;;;;;11.44;44.03;100881.78;5055205;28;20045;-72
2021/04/23 06:21:26;;;;;;;13.65;5.22;;;;;;;12.29;42.38;100872.66;5085978;28;20161;-72
2021/04/23 06:23:52;;;;;;;11.88;4.75;;;;;;;11.81;42.92;100877.16;5079761;28;20158;-71
2021/04/23 06:26:18;;;;;;;10.77;5.20;;;;;;;11.62;43.83;100885.28;5121527;28;20035;-69
2021/04/23 06:28:47;;;;;;;12.68;5.00;;;;;;;12.87;40.91;100879.94;5103916;28;20566;-69
2021/04/23 06:31:14;;;;;;;12.57;5.10;;;;;;;12.79;40.37;100872.38;5072879;28;20035;-68
2021/04/23 06:33:43;;;;;;;11.30;4.72;;;;;;;12.81;40.07;100821.41;5074788;28;20039;-67
2021/04/23 06:36:09;;;;;;;13.55;5.00;;;;;;;13.14;39.93;100891.69;5073147;28;20028;-67
2021/04/23 06:38:35;;;;;;;11.27;4.60;;;;;;;13.51;39.53;100894.81;5072589;28;20028;-68
2021/04/23 06:41:02;;;;;;;9.60;4.80;;;;;;;13.64;39.23;100843.97;5054637;28;20068;-73
2021/04/23 06:43:28;;;;;;;10.30;4.85;;;;;;;13.38;39.54;100892.03;5054861;28;20046;-69
2021/04/23 06:45:53;;;;;;;12.90;5.03;;;;;;;12.70;40.52;100888.13;5054467;28;20029;-72
2021/04/23 06:48:20;;;;;;;14.23;4.88;;;;;;;12.52;40.87;100896.25;5072373;28;20420;-71
2021/04/23 06:50:47;;;;;;;14.32;5.13;;;;;;;12.45;40.98;100908.28;5072573;28;20036;-71
2021/04/23 06:53:13;;;;;;;11.38;4.43;;;;;;;12.89;39.77;100902.13;5072119;28;20111;-74
2021/04/23 06:55:39;;;;;;;13.07;4.90;;;;;;;12.30;40.76;100903.81;5038241;28;20135;-74
2021/04/23 06:58:05;;;;;;;13.52;5.00;;;;;;;11.69;42.13;100908.06;5072288;28;20032;-75
2021/04/23 07:00:33;;;;;;;12.63;4.72;;;;;;;11.12;43.58;100904.88;5091663;28;20024;-73
2021/04/23 07:03:00;;;;;;;12.20;4.45;;;;;;;11.47;42.46;100896.78;5074553;28;20473;-71
2021/04/23 07:05:27;;;;;;;11.40;4.50;;;;;;;11.43;42.12;100904.09;5092275;28;20036;-72
2021/04/23 07:07:53;;;;;;;11.20;4.90;;;;;;;11.39;42.70;100899.03;5074437;28;20034;-71
2021/04/23 07:10:23;;;;;;;11.98;3.75;;;;;;;10.79;43.11;100850.53;5091550;28;20539;-72
2021/04/23 07:12:49;;;;;;;13.40;4.72;;;;;;;11.35;41.60;100884.94;5057915;28;20077;-71
2021/04/23 07:15:18;;;;;;;13.52;4.20;;;;;;;11.58;41.00;100917.56;5074114;28;20032;-72
2021/04/23 07:17:45;;;;;;;7.65;3.17;;;;;;;11.21;39.60;100897.31;5092837;28;20048;-69
2021/04/23 07:20:12;;;;;;;15.48;3.97;;;;;;;10.87;41.74;100891.91;5091336;28;20036;-70
2021/04/23 07:22:37;;;;;;;7.80;3.60;;;;;;;10.87;41.58;100923.94;5057842;28;20465;-71
2021/04/23 07:25:04;;;;;;;10.35;4.03;;;;;;;10.64;41.59;100921.56;5092207;28;20062;-71
2021/04/23 07:27:34;;;;;;;10.73;3.97;;;;;;;10.51;41.19;100912.44;5092274;28;20063;-69
2021/04/23 07:30:10;;;;;;;11.30;4.07;;;;;;;10.55;42.18;100909.56;5058799;28;20481;-68
2021/04/23 07:32:36;;;;;;;10.05;3.67;;;;;;;10.52;41.34;100935.53;5072292;28;20036;-71
2021/04/23 07:35:02;;;;;;;11.48;3.78;;;;;;;10.55;41.16;100946.91;5072340;28;20435;-69
2021/04/23 07:37:27;;;;;;;13.63;4.32;;;;;;;10.37;40.54;100864.25;5071895;28;20059;-71
2021/04/23 07:39:53;;;;;;;9.23;3.42;;;;;;;10.37;41.05;100882.94;5071709;28;20492;-72
2021/04/23 07:42:18;;;;;;;11.13;4.07;;;;;;;10.24;42.15;100894.19;5071537;28;20032;-70
2021/04/23 07:44:44;;;;;;;13.00;3.72;;;;;;;10.48;41.83;100939.25;5054248;28;20040;-73
2021/04/23 07:47:09;;;;;;;10.45;3.75;;;;;;;10.37;41.93;100936.25;5053841;28;20040;-72
2021/04/23 07:49:35;;;;;;;11.15;4.03;;;;;;;10.63;41.71;100927.84;5071696;28;20068;-71
2021/04/23 07:52:02;;;;;;;9.73;3.20;;;;;;;10.65;41.39;100946.44;5037410;28;20032;-75
2021/04/23 07:54:27;;;;;;;11.25;4.03;;;;;;;10.52;42.46;100919.53;5074019;28;20485;-70
2021/04/23 07:56:53;;;;;;;9.45;2.95;;;;;;;10.56;42.85;100943.28;5092188;28;20051;-71
2021/04/23 07:59:19;;;;;;;5.43;2.53;;;;;;;10.55;42.88;100935.38;5081210;28;20032;-71
2021/04/23 08:01:44;;;;;;;6.10;2.55;;;;;;;10.60;43.10;100935.97;5074523;28;20481;-70
2021/04/23 08:04:10;;;;;;;13.15;4.50;;;;;;;10.74;43.38;100930.84;5057604;28;20033;-66
2021/04/23 08:06:36;;;;;;;12.38;3.53;;;;;;;10.69;42.05;100954.22;5075390;28;20032;-71
2021/04/23 08:09:02;;;;;;;6.43;3.10;;;;;;;10.60;41.56;100957.31;5057679;28;20124;-70
2021/04/23 08:11:28;;;;;;;12.20;3.67;;;;;;;10.59;42.60;100945.78;5075003;28;20056;-72
2021/04/23 08:13:53;;;;;;;10.18;3.92;;;;;;;10.23;43.39;100889.81;5075680;28;20402;-74
2021/04/23 08:16:20;;;;;;;8.48;3.13;;;;;;;10.54;42.75;100933.66;5056668;28;20418;-72
2021/04/23 08:18:50;;;;;;;11.23;4.30;;;;;;;10.89;42.52;100967.41;5057693;28;20397;-70
2021/04/23 08:21:15;;;;;;;10.02;3.88;;;;;;;11.05;42.23;100959.50;5074973;28;20051;-70
2021/04/23 08:23:41;;;;;;;9.95;3.92;;;;;;;10.81;41.47;100958.97;5057175;28;20029;-72
2021/04/23 08:26:06;;;;;;;11.15;3.53;;;;;;;10.74;42.13;100952.19;5057719;28;20119;-72
2021/04/23 08:28:32;;;;;;;8.02;3.65;;;;;;;10.84;40.67;100971.28;5057174;28;20120;-71
2021/04/23 08:30:59;;;;;;;10.02;4.15;;;;;;;10.75;42.57;100972.59;5040262;28;20036;-73
2021/04/23 08:33:25;;;;;;;11.95;4.35;;;;;;;10.86;42.58;100972.06;5075466;28;20107;-71
2021/04/23 08:35:50;;;;;;;9.32;4.20;;;;;;;10.99;42.58;100956.28;5075304;28;20136;-71
2021/04/23 08:38:16;;;;;;;11.63;4.72;;;;;;;11.07;41.66;100992.34;5057165;28;20033;-66
2021/04/23 08:40:42;;;;;;;6.53;3.05;;;;;;;10.55;42.92;100916.69;5057019;28;20028;-66
2021/04/23 08:43:08;;;;;;;9.13;4.18;;;;;;;10.89;42.56;100967.41;5063733;28;20046;-70
2021/04/23 08:45:34;;;;;;;9.40;4.32;;;;;;;10.93;41.90;100977.97;5095331;28;20040;-73
2021/04/23 08:47:59;;;;;;;11.60;4.70;;;;;;;10.55;41.57;100903.34;5077566;28;20028;-72
2021/04/23 08:50:26;;;;;;;11.35;4.43;;;;;;;10.84;41.18;100944.59;5094708;28;20118;-71
2021/04/23 08:52:53;;;;;;;10.77;4.40;;;;;;;10.95;41.22;100941.38;5096697;28;20034;-72
2021/04/23 08:55:23;;;;;;;9.90;4.40;;;;;;;11.27;41.92;100959.25;5080378;28;20469;-70
2021/04/23 08:57:49;;;;;;;12.13;4.72;;;;;;;11.17;40.90;100953.53;5098844;28;20400;-70
2021/04/23 09:00:16;;;;;;;11.77;3.97;;;;;;;11.20;40.36;100965.88;5089746;28;20056;-71
2021/04/23 09:02:42;;;;;;;14.20;3.78;;;;;;;11.16;39.33;100970.50;5078208;28;20028;-71
2021/04/23 09:05:08;;;;;;;6.30;3.50;;;;;;;10.95;39.91;100949.38;5095587;28;20040;-69
2021/04/23 09:07:35;;;;;;;10.45;3.72;;;;;;;11.26;40.84;100959.34;5059656;28;20036;-72
2021/04/23 09:10:14;;;;;;;10.77;4.13;;;;;;;11.25;40.13;100942.47;5076263;28;20032;-71
2021/04/23 09:12:41;;;;;;;8.90;4.03;;;;;;;11.39;39.82;100961.31;5094386;28;20036;-73
2021/04/23 09:15:27;;;;;;;9.30;3.70;;;;;;;11.62;40.41;100961.91;5094433;28;20035;-72
2021/04/23 09:18:10;;;;;;;8.38;3.75;;;;;;;11.47;40.91;100953.75;5093881;28;20048;-74
2021/04/23 09:20:39;;;;;;;10.48;4.32;;;;;;;11.44;40.88;100948.56;5094242;28;20073;-75
2021/04/23 09:23:16;;;;;;;10.75;4.25;;;;;;;11.70;39.67;100949.00;5094528;28;20028;-75
2021/04/23 09:25:53;;;;;;;11.73;3.80;;;;;;;11.51;40.09;100950.94;5093194;28;20563;-73
2021/04/23 09:28:39;;;;;;;7.43;2.95;;;;;;;11.63;40.07;100952.94;5093643;28;20443;-74
2021/04/23 09:31:30;;;;;;;10.65;3.60;;;;;;;11.72;38.71;100963.13;5075998;28;20049;-72
2021/04/23 09:34:02;;;;;;;9.35;4.05;;;;;;;11.76;38.98;100943.31;5094030;28;20082;-71
2021/04/23 09:36:46;;;;;;;7.95;3.70;;;;;;;11.69;39.19;100947.28;5093876;28;20032;-69
2021/04/23 09:39:21;;;;;;;11.63;4.32;;;;;;;11.61;38.61;100917.44;5075943;28;20116;-75
2021/04/23 09:42:10;;;;;;;8.48;3.20;;;;;;;11.75;36.50;100931.75;5094091;28;20036;-73
2021/04/23 09:44:35;;;;;;;5.80;2.50;;;;;;;12.08;37.82;100938.06;5093939;28;20058;-73
2021/04/23 09:47:20;;;;;;;6.72;3.10;;;;;;;11.89;36.77;100933.72;5093987;28;20477;-74
2021/04/23 09:49:58;;;;;;;8.57;3.65;;;;;;;12.11;36.96;100924.50;5093863;28;20054;-75
2021/04/23 09:52:25;;;;;;;11.02;3.97;;;;;;;11.92;36.42;100943.38;5093486;28;20056;-73
2021/04/23 09:54:53;;;;;;;7.63;3.40;;;;;;;11.82;36.36;100894.91;5098988;28;20059;-74
2021/04/23 09:57:22;;;;;;;6.78;3.20;;;;;;;11.97;36.00;100903.91;5102980;28;20038;-72
2021/04/23 09:59:58;;;;;;;6.40;3.00;;;;;;;11.93;36.03;100918.38;5081999;28;20397;-73
2021/04/23 10:02:29;;;;;;;8.93;3.25;;;;;;;11.93;37.82;100913.88;5055829;28;20562;-73
2021/04/23 10:04:56;;;;;;;10.43;3.95;;;;;;;12.01;37.29;100897.44;5073616;28;20157;-73
2021/04/23 10:07:26;;;;;;;10.27;4.47;;;;;;;12.17;37.79;100916.16;5038322;28;20041;-71
2021/04/23 10:10:10;;;;;;;10.90;3.97;;;;;;;12.16;36.97;100914.41;5073011;28;20029;-71
2021/04/23 10:12:42;;;;;;;9.55;4.75;;;;;;;12.49;37.49;100928.56;5072790;28;20033;-74
2021/04/23 10:15:26;;;;;;;8.00;3.67;;;;;;;12.10;37.15;100912.09;5073182;28;20080;-73
2021/04/23 10:17:53;;;;;;;6.75;3.15;;;;;;;12.17;38.27;100910.81;5055487;28;20041;-73
2021/04/23 10:20:27;;;;;;;10.68;4.30;;;;;;;12.24;37.35;100904.13;5072746;28;20039;-72
2021/04/23 10:22:54;;;;;;;8.15;4.35;;;;;;;11.79;37.30;100862.13;5091994;28;20028;-72
2021/04/23 10:25:20;;;;;;;9.73;4.53;;;;;;;12.13;37.69;100903.88;5092923;28;20482;-71
2021/04/23 10:27:47;;;;;;;9.57;4.75;;;;;;;12.12;37.10;100923.56;5040644;28;20024;-72
2021/04/23 10:30:18;;;;;;;9.45;4.55;;;;;;;12.16;37.03;100909.94;5056961;28;20036;-76
2021/04/23 10:32:49;;;;;;;5.70;2.90;;;;;;;12.38;37.67;100901.56;5054979;28;20028;-69
2021/04/23 10:35:15;;;;;;;8.73;3.22;;;;;;;12.31;38.23;100881.44;5072654;28;20044;-73
2021/04/23 10:37:42;;;;;;;11.57;5.18;;;;;;;12.34;38.27;100897.31;5072513;28;20036;-72
2021/04/23 10:40:10;;;;;;;7.95;3.45;;;;;;;12.48;37.72;100889.38;5071989;28;20033;-72
2021/04/23 10:42:48;;;;;;;10.07;4.07;;;;;;;12.56;38.37;100887.13;5075038;28;20035;-74
2021/04/23 10:45:22;;;;;;;9.60;5.22;;;;;;;12.43;38.06;100899.47;5072749;28;20146;-74
2021/04/23 10:47:50;;;;;;;6.53;3.20;;;;;;;12.28;35.50;100863.78;5072608;28;20060;-71
2021/04/23 10:50:22;;;;;;;4.68;2.60;;;;;;;11.95;35.81;100836.25;5053923;28;20024;-74
2021/04/23 10:52:58;;;;;;;4.90;2.20;;;;;;;12.40;36.80;100882.75;5072648;28;20032;-73
2021/04/23 10:55:53;;;;;;;8.13;3.35;;;;;;;12.47;35.53;100901.03;5072317;28;20408;-72
2021/04/23 10:58:37;;;;;;;8.77;4.45;;;;;;;12.67;36.59;100883.81;5049648;28;20201;-76
2021/04/23 11:01:21;;;;;;;9.07;4.57;;;;;;;12.37;36.45;100834.78;5074173;28;20039;-73
2021/04/23 11:04:08;;;;;;;8.65;4.45;;;;;;;12.78;36.71;100880.50;5092692;28;20115;-74
2021/04/23 11:06:40;;;;;;;10.25;4.32;;;;;;;12.68;36.18;100873.97;5092526;28;20472;-76
2021/04/23 11:09:09;;;;;;;5.63;2.30;;;;;;;12.34;35.02;100854.50;5074377;28;20100;-75
2021/04/23 11:11:42;;;;;;;9.57;4.57;;;;;;;12.49;35.29;100884.88;5074075;28;20024;-76
2021/04/23 11:14:27;;;;;;;8.15;4.22;;;;;;;13.06;36.47;100874.34;5092867;28;20040;-74
2021/04/23 11:17:14;;;;;;;6.57;3.63;;;;;;;13.30;36.43;100866.66;5092296;28;20446;-71
2021/04/23 11:19:41;;;;;;;8.95;4.00;;;;;;;12.84;36.70;100859.59;5091488;28;20031;-73
2021/04/23 11:22:13;;;;;;;12.10;4.78;;;;;;;12.73;34.85;100887.94;5074302;28;20059;-72
2021/04/23 11:24:40;;;;;;;9.82;4.70;;;;;;;12.30;34.92;100880.59;5092215;28;20059;-72
2021/04/23 11:27:09;;;;;;;8.43;4.72;;;;;;;12.36;35.38;100876.72;5092445;28;20032;-74
2021/04/23 11:29:51;;;;;;;8.35;3.78;;;;;;;12.38;35.23;100871.28;5091693;28;20470;-71